Time;durP1;ratioP1;P1;durP2;ratioP2;P2;SDS_P1;SDS_P2;PMS_P1;PMS_P2;Temp;Humidity;BMP_temperature;BMP_pressure;BME280_temperature;BME280_humidity;BME280_pressure;Samples;Min_cycle;Max_cycle;Signal;HPM_P1;HPM_P2
2024/03/02 00:01:41;;;;;;;50.55;8.82;;;11.10;97.60;;;;;;5034209;28;20116;-53
2024/03/02 00:04:06;;;;;;;40.85;8.57;;;11.10;97.60;;;;;;5068717;28;20487;-53
2024/03/02 00:06:32;;;;;;;36.38;9.10;;;11.10;97.70;;;;;;5050928;28;20092;-52
2024/03/02 00:08:58;;;;;;;51.92;9.57;;;11.10;97.70;;;;;;5050931;28;20102;-52
2024/03/02 00:11:24;;;;;;;38.78;8.27;;;11.10;97.70;;;;;;5068456;28;20037;-52
2024/03/02 00:13:53;;;;;;;37.92;8.32;;;11.00;97.70;;;;;;5068606;28;20027;-53
2024/03/02 00:16:19;;;;;;;42.20;8.68;;;11.00;97.70;;;;;;5050559;28;20103;-53
2024/03/02 00:18:45;;;;;;;48.92;9.00;;;11.00;97.70;;;;;;5050978;28;20029;-53
2024/03/02 00:21:11;;;;;;;29.63;7.78;;;11.00;97.70;;;;;;5068156;28;20039;-52
2024/03/02 00:23:36;;;;;;;37.88;7.85;;;11.00;97.70;;;;;;5050476;28;20056;-53
2024/03/02 00:26:03;;;;;;;34.45;8.02;;;11.00;97.70;;;;;;5050376;28;20040;-53
2024/03/02 00:28:35;;;;;;;33.10;8.02;;;10.90;97.70;;;;;;5050431;28;20081;-52
2024/03/02 00:31:04;;;;;;;26.13;7.93;;;11.00;97.70;;;;;;5050253;28;20032;-53
2024/03/02 00:33:37;;;;;;;34.45;7.88;;;10.90;97.70;;;;;;5068246;28;20386;-53
2024/03/02 00:36:03;;;;;;;33.55;7.55;;;10.90;97.60;;;;;;5050046;28;20036;-53
2024/03/02 00:38:29;;;;;;;36.45;7.20;;;10.90;97.60;;;;;;5050364;28;20029;-52
2024/03/02 00:40:56;;;;;;;27.10;7.28;;;10.90;97.70;;;;;;5050151;28;20080;-52
2024/03/02 00:43:37;;;;;;;26.35;6.82;;;10.80;97.70;;;;;;5050263;28;20490;-52
2024/03/02 00:46:03;;;;;;;22.17;7.28;;;10.80;97.80;;;;;;5067943;28;20032;-53
2024/03/02 00:48:31;;;;;;;31.17;7.18;;;10.80;97.80;;;;;;5049981;28;20025;-53
2024/03/02 00:50:56;;;;;;;40.78;7.63;;;10.80;97.80;;;;;;5050117;28;20040;-52
2024/03/02 00:53:26;;;;;;;25.70;6.97;;;10.80;97.80;;;;;;5050005;28;20032;-53
2024/03/02 00:55:52;;;;;;;24.45;6.95;;;10.80;97.80;;;;;;5033346;28;20029;-53
2024/03/02 00:58:17;;;;;;;33.22;7.53;;;10.70;97.90;;;;;;5049904;28;20035;-52
2024/03/02 01:00:43;;;;;;;23.77;6.93;;;10.70;97.80;;;;;;5033226;28;20464;-52
2024/03/02 01:03:10;;;;;;;29.67;7.45;;;10.70;97.80;;;;;;5067570;28;20025;-52
2024/03/02 01:05:36;;;;;;;26.17;7.18;;;10.70;97.80;;;;;;5049804;28;20055;-53
2024/03/02 01:08:02;;;;;;;25.40;7.13;;;10.60;97.90;;;;;;5049647;28;20017;-53
2024/03/02 01:10:27;;;;;;;28.13;8.00;;;10.70;98.20;;;;;;5032630;28;20032;-52
2024/03/02 01:12:53;;;;;;;22.63;7.05;;;10.60;97.90;;;;;;5049605;28;20543;-52
2024/03/02 01:15:19;;;;;;;26.65;7.47;;;10.60;97.80;;;;;;5032761;28;20037;-52
2024/03/02 01:17:45;;;;;;;26.48;6.93;;;10.60;97.80;;;;;;5032871;28;20115;-52
2024/03/02 01:20:11;;;;;;;20.27;7.25;;;10.60;97.90;;;;;;5049390;28;20055;-53
2024/03/02 01:22:37;;;;;;;23.20;6.85;;;10.60;97.90;;;;;;5066589;28;20033;-52
2024/03/02 01:25:03;;;;;;;24.30;6.88;;;10.60;97.90;;;;;;5049141;28;20055;-53
2024/03/02 01:27:28;;;;;;;23.58;6.63;;;10.60;97.90;;;;;;5049319;28;20021;-52
2024/03/02 01:29:54;;;;;;;21.73;6.25;;;10.60;98.20;;;;;;5066959;28;20049;-53
2024/03/02 01:32:20;;;;;;;21.73;6.13;;;10.50;97.90;;;;;;5049346;28;20025;-53
2024/03/02 01:34:45;;;;;;;18.05;6.45;;;10.50;97.90;;;;;;5066933;28;20037;-52
2024/03/02 01:37:11;;;;;;;22.73;6.03;;;10.50;97.90;;;;;;5048910;28;20036;-52
2024/03/02 01:39:37;;;;;;;24.85;6.90;;;10.50;97.90;;;;;;5066789;28;20048;-53
2024/03/02 01:42:02;;;;;;;20.65;7.57;;;10.40;97.90;;;;;;5066901;28;20085;-53
2024/03/02 01:44:28;;;;;;;22.20;7.07;;;10.50;97.90;;;;;;5048892;28;20055;-53
2024/03/02 01:46:54;;;;;;;18.95;6.60;;;10.40;97.80;;;;;;5049011;28;20085;-53
2024/03/02 01:49:19;;;;;;;18.88;6.50;;;10.40;97.80;;;;;;5048807;28;20028;-53
2024/03/02 01:51:45;;;;;;;21.08;6.47;;;10.40;97.80;;;;;;5048885;28;20048;-52
2024/03/02 01:54:11;;;;;;;22.35;6.15;;;10.40;97.90;;;;;;5048967;28;20021;-52
2024/03/02 01:56:37;;;;;;;16.73;6.18;;;10.40;98.00;;;;;;5048756;28;20413;-52
2024/03/02 01:59:03;;;;;;;20.23;6.70;;;10.30;97.90;;;;;;5048819;28;20021;-52
2024/03/02 02:01:28;;;;;;;26.10;6.05;;;10.30;97.90;;;;;;5048611;28;20033;-53
2024/03/02 02:03:54;;;;;;;15.07;5.47;;;10.30;97.90;;;;;;5048641;28;20051;-52
2024/03/02 02:06:20;;;;;;;15.43;6.50;;;10.30;97.90;;;;;;5048501;28;20029;-52
2024/03/02 02:08:47;;;;;;;14.68;6.22;;;10.30;97.90;;;;;;5032098;28;20089;-52
2024/03/02 02:11:15;;;;;;;16.48;6.60;;;10.30;97.90;;;;;;5032026;28;20383;-52
2024/03/02 02:13:40;;;;;;;21.00;6.43;;;10.30;97.90;;;;;;5048451;28;20453;-52
2024/03/02 02:16:09;;;;;;;18.83;6.15;;;10.20;97.90;;;;;;5066239;28;20044;-52
2024/03/02 02:18:38;;;;;;;20.52;6.40;;;10.20;97.90;;;;;;5048374;28;20056;-52
2024/03/02 02:21:04;;;;;;;15.52;5.75;;;10.20;97.90;;;;;;5048765;28;20040;-52
2024/03/02 02:23:29;;;;;;;15.43;5.72;;;10.20;98.00;;;;;;5066174;28;20060;-52
2024/03/02 02:25:55;;;;;;;20.70;6.47;;;10.20;98.00;;;;;;5031797;28;20398;-52
2024/03/02 02:28:21;;;;;;;14.98;6.00;;;10.20;98.00;;;;;;5048355;28;20021;-52
2024/03/02 02:30:46;;;;;;;18.58;5.82;;;10.20;98.00;;;;;;5048160;28;20037;-52
2024/03/02 02:33:12;;;;;;;21.20;6.78;;;10.10;98.00;;;;;;5066143;28;20055;-53
2024/03/02 02:35:38;;;;;;;16.27;6.32;;;10.20;98.00;;;;;;5052023;28;20044;-53
2024/03/02 02:38:04;;;;;;;17.08;5.93;;;10.10;98.00;;;;;;5052480;28;20029;-52
2024/03/02 02:40:30;;;;;;;22.63;6.47;;;10.10;98.20;;;;;;5052409;28;20025;-52
2024/03/02 02:42:57;;;;;;;17.08;5.93;;;10.10;97.90;;;;;;5052306;28;20575;-52
2024/03/02 02:45:22;;;;;;;19.65;6.40;;;10.10;97.80;;;;;;5052167;28;20025;-53
2024/03/02 02:47:48;;;;;;;11.93;5.72;;;10.10;97.90;;;;;;5070127;28;20087;-53
2024/03/02 02:50:14;;;;;;;19.35;5.82;;;10.00;97.90;;;;;;5052024;28;20028;-53
2024/03/02 02:52:40;;;;;;;20.05;5.85;;;10.10;97.90;;;;;;5052186;28;20088;-53
2024/03/02 02:55:07;;;;;;;19.75;5.93;;;10.00;98.00;;;;;;5052160;28;20037;-53
2024/03/02 02:57:37;;;;;;;13.98;5.13;;;10.00;98.20;;;;;;5051928;28;20035;-53
2024/03/02 03:00:22;;;;;;;16.77;5.63;;;10.00;98.00;;;;;;5051855;28;20025;-52
2024/03/02 03:02:49;;;;;;;19.10;5.57;;;9.90;98.00;;;;;;5051991;28;20059;-52
2024/03/02 03:05:15;;;;;;;17.02;5.93;;;9.90;98.00;;;;;;5051895;28;20085;-52
2024/03/02 03:07:41;;;;;;;17.08;5.47;;;10.00;98.10;;;;;;5052005;28;20025;-52
2024/03/02 03:10:07;;;;;;;11.80;4.80;;;9.90;98.30;;;;;;5051709;28;20052;-52
2024/03/02 03:12:33;;;;;;;16.98;5.60;;;9.90;98.00;;;;;;5051794;28;20029;-52
2024/03/02 03:14:59;;;;;;;10.88;5.63;;;9.90;98.00;;;;;;5051746;28;20040;-52
2024/03/02 03:17:25;;;;;;;12.00;5.47;;;9.90;98.00;;;;;;5069315;28;20032;-52
2024/03/02 03:19:50;;;;;;;12.98;5.70;;;9.90;98.00;;;;;;5051536;28;20055;-52
2024/03/02 03:22:16;;;;;;;14.05;5.45;;;9.80;98.00;;;;;;5069380;28;20032;-52
2024/03/02 03:24:42;;;;;;;11.52;5.78;;;9.80;98.00;;;;;;5051463;28;20035;-52
2024/03/02 03:27:08;;;;;;;13.90;5.68;;;9.80;98.10;;;;;;5051414;28;20025;-53
2024/03/02 03:29:33;;;;;;;11.80;5.68;;;9.80;98.10;;;;;;5034982;28;20017;-53
2024/03/02 03:31:59;;;;;;;20.15;5.95;;;9.80;98.10;;;;;;5051537;28;20033;-52
2024/03/02 03:34:25;;;;;;;12.73;5.63;;;9.80;98.00;;;;;;5069213;28;20032;-52
2024/03/02 03:36:50;;;;;;;10.43;5.70;;;9.80;98.00;;;;;;5051233;28;20037;-53
2024/03/02 03:39:17;;;;;;;14.80;5.65;;;9.70;98.00;;;;;;5051338;28;20039;-52
2024/03/02 03:41:43;;;;;;;11.07;5.40;;;9.80;98.00;;;;;;5034715;28;20059;-52
2024/03/02 03:44:08;;;;;;;13.13;5.57;;;9.70;98.00;;;;;;5068775;28;20402;-53
2024/03/02 03:46:34;;;;;;;12.35;5.70;;;9.70;98.10;;;;;;5069193;28;20056;-52
2024/03/02 03:49:00;;;;;;;10.15;5.38;;;9.70;98.10;;;;;;5051226;28;20467;-52
2024/03/02 03:51:25;;;;;;;9.88;5.10;;;9.70;98.10;;;;;;5051010;28;20036;-52
2024/03/02 03:53:51;;;;;;;10.57;5.43;;;9.70;98.10;;;;;;5069050;28;20021;-52
2024/03/02 03:56:16;;;;;;;11.35;5.00;;;9.70;98.10;;;;;;5069019;28;20067;-52
2024/03/02 03:58:42;;;;;;;11.77;5.55;;;9.70;98.10;;;;;;5034456;28;20025;-52
2024/03/02 04:01:08;;;;;;;13.75;5.65;;;9.70;98.10;;;;;;5050978;28;20086;-52
2024/03/02 04:03:33;;;;;;;11.73;5.53;;;9.60;98.00;;;;;;5068770;28;20107;-52
2024/03/02 04:05:59;;;;;;;14.73;5.20;;;9.60;98.00;;;;;;5068741;28;20036;-52
2024/03/02 04:08:24;;;;;;;11.98;5.18;;;9.60;98.00;;;;;;5050860;28;20047;-52
2024/03/02 04:10:50;;;;;;;12.32;6.07;;;9.60;98.00;;;;;;5051715;28;20505;-52
2024/03/02 04:13:16;;;;;;;12.60;5.57;;;9.60;98.10;;;;;;5068465;28;20029;-52
2024/03/02 04:15:41;;;;;;;12.52;5.45;;;9.60;98.10;;;;;;5050607;28;20058;-52
2024/03/02 04:18:07;;;;;;;14.43;6.30;;;9.60;98.10;;;;;;5050539;28;20078;-52
2024/03/02 04:20:33;;;;;;;10.80;5.53;;;9.60;98.10;;;;;;5050459;28;20033;-52
2024/03/02 04:22:58;;;;;;;9.55;5.53;;;9.50;98.10;;;;;;5051456;28;20036;-52
2024/03/02 04:25:24;;;;;;;10.95;5.53;;;9.50;98.10;;;;;;5050572;28;20033;-52
2024/03/02 04:27:49;;;;;;;7.15;5.15;;;9.50;98.20;;;;;;5033891;28;20063;-52
2024/03/02 04:30:15;;;;;;;10.02;5.28;;;9.50;98.20;;;;;;5068200;28;20021;-52
2024/03/02 04:32:41;;;;;;;8.60;5.28;;;9.50;98.10;;;;;;5067998;28;20533;-52
2024/03/02 04:35:10;;;;;;;13.45;6.15;;;9.50;98.20;;;;;;5068141;28;20040;-52
2024/03/02 04:37:36;;;;;;;11.07;5.50;;;9.50;98.10;;;;;;5050567;28;20033;-52
2024/03/02 04:40:01;;;;;;;13.23;5.75;;;9.50;98.20;;;;;;5050006;28;20040;-52
2024/03/02 04:42:27;;;;;;;11.63;6.43;;;9.50;98.20;;;;;;5067981;28;20028;-52
2024/03/02 04:44:53;;;;;;;10.00;5.65;;;9.40;98.60;;;;;;5050052;28;20446;-52
2024/03/02 04:47:18;;;;;;;14.38;6.10;;;9.40;98.30;;;;;;5067852;28;20104;-52
2024/03/02 04:49:44;;;;;;;11.40;6.15;;;9.40;98.40;;;;;;5067888;28;20048;-53
2024/03/02 04:52:09;;;;;;;10.63;5.18;;;9.40;98.40;;;;;;5049827;28;20055;-52
2024/03/02 04:55:09;;;;;;;14.95;5.63;;;9.40;98.40;;;;;;5049702;28;20099;-52
2024/03/02 04:57:21;;;;;;;10.38;5.95;;;9.40;98.40;;;;;;5067380;28;20036;-53
2024/03/02 04:59:46;;;;;;;10.38;5.88;;;9.40;98.40;;;;;;5049792;28;20053;-52
2024/03/02 05:02:13;;;;;;;9.15;5.72;;;9.40;98.40;;;;;;5067626;28;20112;-53
2024/03/02 05:04:39;;;;;;;9.32;5.82;;;9.40;98.40;;;;;;5033270;28;20036;-52
2024/03/02 05:07:05;;;;;;;8.43;5.40;;;9.40;98.70;;;;;;5049559;28;20410;-52
2024/03/02 05:09:31;;;;;;;8.85;6.05;;;9.40;98.40;;;;;;5049524;28;20021;-52
2024/03/02 05:12:17;;;;;;;8.13;4.78;;;9.30;98.40;;;;;;5067364;28;20025;-52
2024/03/02 05:14:42;;;;;;;;;;;9.30;98.40;;;;;;5067875;28;20037;-53
2024/03/02 05:17:08;;;;;;;;;;;9.30;98.40;;;;;;5049944;28;19962;-52
2024/03/02 05:19:33;;;;;;;12.00;5.20;;;9.30;98.40;;;;;;5049517;28;19947;-52
2024/03/02 05:21:59;;;;;;;13.57;6.88;;;9.30;98.40;;;;;;5032775;28;20029;-52
2024/03/02 05:24:27;;;;;;;11.13;5.80;;;9.30;98.50;;;;;;5066985;28;20486;-53
2024/03/02 05:26:52;;;;;;;11.65;6.03;;;9.30;98.60;;;;;;5033113;28;20025;-52
2024/03/02 05:29:18;;;;;;;13.65;5.85;;;9.30;98.60;;;;;;5067146;28;20442;-52
2024/03/02 05:31:44;;;;;;;10.70;6.47;;;9.30;98.60;;;;;;5049286;28;20081;-52
2024/03/02 05:34:09;;;;;;;9.70;6.00;;;9.30;98.50;;;;;;5049181;28;20017;-52
2024/03/02 05:36:35;;;;;;;10.13;5.70;;;9.30;98.60;;;;;;5048867;28;20041;-52
2024/03/02 05:39:02;;;;;;;11.85;6.40;;;9.20;98.60;;;;;;5049059;28;20020;-52
2024/03/02 05:41:27;;;;;;;9.90;5.85;;;9.30;98.70;;;;;;5066714;28;20039;-52
2024/03/02 05:43:53;;;;;;;9.27;5.70;;;9.20;98.70;;;;;;5048833;28;20025;-52
2024/03/02 05:46:20;;;;;;;9.15;6.38;;;9.30;98.70;;;;;;5066828;28;20056;-52
2024/03/02 05:48:45;;;;;;;13.65;6.53;;;9.30;98.70;;;;;;5049018;28;20471;-52
2024/03/02 05:51:11;;;;;;;11.93;6.22;;;9.30;98.70;;;;;;5048925;28;20040;-52
2024/03/02 05:53:38;;;;;;;8.55;6.05;;;9.20;98.70;;;;;;5048875;28;20032;-52
2024/03/02 05:56:05;;;;;;;11.25;5.97;;;9.30;98.80;;;;;;5049097;28;20040;-53
2024/03/02 06:01:14;;;;;;;8.80;6.07;;;9.20;98.80;;;;;;5051458;28;20040;-52
2024/03/02 06:03:40;;;;;;;12.65;6.18;;;9.30;98.80;;;;;;5048778;28;20029;-52
2024/03/02 06:06:06;;;;;;;10.38;6.13;;;9.30;98.80;;;;;;5048593;28;20033;-52
2024/03/02 06:08:31;;;;;;;14.38;6.32;;;9.30;98.80;;;;;;5048326;28;20024;-53
2024/03/02 06:10:58;;;;;;;12.60;6.47;;;9.20;98.80;;;;;;5066467;28;20029;-53
2024/03/02 06:13:25;;;;;;;15.27;6.95;;;9.30;98.90;;;;;;5066216;28;20025;-52
2024/03/02 06:15:51;;;;;;;9.68;6.35;;;9.30;98.90;;;;;;5048832;28;20044;-52
2024/03/02 06:18:16;;;;;;;13.77;6.63;;;9.30;98.90;;;;;;5048422;28;20029;-52
2024/03/02 06:20:42;;;;;;;11.35;6.75;;;9.30;98.90;;;;;;5048338;28;20055;-52
2024/03/02 06:23:08;;;;;;;12.73;6.95;;;9.30;98.90;;;;;;5066219;28;20090;-52
2024/03/02 06:25:33;;;;;;;14.35;7.30;;;9.30;99.00;;;;;;5031790;28;20025;-52
2024/03/02 06:27:59;;;;;;;15.93;7.57;;;9.30;99.00;;;;;;5066334;28;20028;-53
2024/03/02 06:30:24;;;;;;;16.35;7.28;;;9.30;99.00;;;;;;5066164;28;20064;-52
2024/03/02 06:32:50;;;;;;;13.50;6.93;;;9.30;99.20;;;;;;5048275;28;20032;-53
2024/03/02 06:35:16;;;;;;;18.23;6.72;;;9.30;99.20;;;;;;5066276;28;20040;-52
2024/03/02 06:37:41;;;;;;;28.08;8.32;;;9.30;99.40;;;;;;5065896;28;20033;-52
2024/03/02 06:40:07;;;;;;;21.98;8.25;;;9.30;99.50;;;;;;5066114;28;20035;-52
2024/03/02 06:42:34;;;;;;;25.30;8.27;;;9.30;99.50;;;;;;5066042;28;20048;-52
2024/03/02 06:45:00;;;;;;;18.35;8.70;;;9.30;99.50;;;;;;5047974;28;20033;-53
2024/03/02 06:47:25;;;;;;;20.98;8.00;;;9.30;99.50;;;;;;5031731;28;20021;-52
2024/03/02 06:49:51;;;;;;;22.08;8.50;;;9.30;99.50;;;;;;5048083;28;20033;-52
2024/03/02 06:52:16;;;;;;;20.40;7.85;;;9.30;99.50;;;;;;5048142;28;20029;-52
2024/03/02 06:54:42;;;;;;;25.05;7.93;;;9.30;99.50;;;;;;5031313;28;20029;-52
2024/03/02 06:57:08;;;;;;;16.77;7.75;;;9.30;99.80;;;;;;5047970;28;20025;-52
2024/03/02 06:59:33;;;;;;;19.75;7.45;;;9.30;99.90;;;;;;5048020;28;20523;-52
2024/03/02 07:01:59;;;;;;;18.33;7.60;;;9.30;99.90;;;;;;5047988;28;20053;-52
2024/03/02 07:04:25;;;;;;;18.58;7.75;;;9.30;99.90;;;;;;5047999;28;20081;-52
2024/03/02 07:06:51;;;;;;;15.55;7.75;;;9.30;99.90;;;;;;5066024;28;20021;-52
2024/03/02 07:09:17;;;;;;;25.08;8.18;;;9.30;99.90;;;;;;5048201;28;20149;-52
2024/03/02 07:11:42;;;;;;;25.73;8.10;;;9.30;99.90;;;;;;5048180;28;20033;-52
2024/03/02 07:14:08;;;;;;;13.32;7.00;;;9.30;99.90;;;;;;5047597;28;20021;-52
2024/03/02 07:16:34;;;;;;;20.42;8.13;;;9.30;99.90;;;;;;5031343;28;20033;-52
2024/03/02 07:19:01;;;;;;;23.75;8.23;;;9.30;99.90;;;;;;5048060;28;20059;-52
2024/03/02 07:21:27;;;;;;;28.40;9.30;;;9.30;99.90;;;;;;5034762;28;20036;-52
2024/03/02 07:23:52;;;;;;;51.20;10.77;;;9.30;99.90;;;;;;5051666;28;20029;-52
2024/03/02 07:26:18;;;;;;;28.60;8.93;;;9.40;99.90;;;;;;5051513;28;20031;-53
2024/03/02 07:28:50;;;;;;;35.53;8.98;;;9.40;99.90;;;;;;5051497;28;20051;-52
2024/03/02 07:31:16;;;;;;;22.20;9.45;;;9.40;99.90;;;;;;5051914;28;20032;-52
2024/03/02 07:33:44;;;;;;;26.17;7.63;;;9.40;99.90;;;;;;5051309;28;20096;-53
2024/03/02 07:36:10;;;;;;;32.17;9.20;;;9.40;99.90;;;;;;5069203;28;20092;-53
2024/03/02 07:38:35;;;;;;;35.15;8.95;;;9.40;99.90;;;;;;5051203;28;20032;-52
2024/03/02 07:41:01;;;;;;;34.85;10.70;;;9.40;99.90;;;;;;5051210;28;20033;-52
2024/03/02 07:43:27;;;;;;;24.95;9.15;;;9.40;99.90;;;;;;5034513;28;20055;-52
2024/03/02 07:45:52;;;;;;;31.05;8.65;;;9.40;99.90;;;;;;5051294;28;20033;-52
2024/03/02 07:48:18;;;;;;;41.83;9.18;;;9.40;99.90;;;;;;5051322;28;20158;-52
2024/03/02 07:50:44;;;;;;;30.40;9.55;;;9.40;99.90;;;;;;5034315;28;20032;-52
2024/03/02 07:53:10;;;;;;;29.85;9.43;;;9.50;99.90;;;;;;5068944;28;20029;-52
2024/03/02 07:55:35;;;;;;;35.85;10.38;;;9.50;99.90;;;;;;5068985;28;20040;-52
2024/03/02 07:58:01;;;;;;;33.85;9.73;;;9.50;99.90;;;;;;5068702;28;20541;-52
2024/03/02 08:00:29;;;;;;;32.22;8.90;;;9.50;99.90;;;;;;5050825;28;20041;-52
2024/03/02 08:02:55;;;;;;;25.33;9.27;;;9.50;99.90;;;;;;5051095;28;20025;-52
2024/03/02 08:05:21;;;;;;;32.95;9.90;;;9.50;99.90;;;;;;5034324;28;20040;-53
2024/03/02 08:07:47;;;;;;;31.00;10.02;;;9.50;99.90;;;;;;5034067;28;20036;-52
2024/03/02 08:10:13;;;;;;;37.17;10.48;;;9.50;99.90;;;;;;5050768;28;20029;-52
2024/03/02 08:12:38;;;;;;;29.20;10.05;;;9.50;99.90;;;;;;5045280;28;20039;-52
2024/03/02 08:15:04;;;;;;;25.85;9.45;;;9.50;99.90;;;;;;5062732;28;20035;-53
2024/03/02 08:17:30;;;;;;;33.38;10.65;;;9.50;99.90;;;;;;5058918;28;20025;-52
2024/03/02 08:19:56;;;;;;;27.05;9.63;;;9.50;99.90;;;;;;5049666;28;20045;-52
2024/03/02 08:22:22;;;;;;;33.40;9.90;;;9.50;99.90;;;;;;5030113;28;20025;-52
2024/03/02 08:24:48;;;;;;;31.23;8.75;;;9.50;99.90;;;;;;5049110;28;20033;-52
2024/03/02 08:27:14;;;;;;;30.60;8.77;;;9.60;99.90;;;;;;5027765;28;20043;-53
2024/03/02 08:29:41;;;;;;;33.33;9.73;;;9.60;99.90;;;;;;5049355;28;20029;-53
2024/03/02 08:32:07;;;;;;;34.80;9.65;;;9.60;99.90;;;;;;5048266;28;20021;-53
2024/03/02 08:34:33;;;;;;;29.58;9.38;;;9.70;99.90;;;;;;5033452;28;20082;-53
2024/03/02 08:36:59;;;;;;;27.90;8.65;;;9.70;99.90;;;;;;5059303;28;20040;-52
2024/03/02 08:39:25;;;;;;;20.00;8.98;;;9.60;99.90;;;;;;5057549;28;20077;-53
2024/03/02 08:41:51;;;;;;;25.30;9.05;;;9.70;99.90;;;;;;5048141;28;20029;-52
2024/03/02 08:44:16;;;;;;;29.20;9.32;;;9.70;99.90;;;;;;5049394;28;20035;-53
2024/03/02 08:46:42;;;;;;;26.83;9.88;;;9.70;99.90;;;;;;5049403;28;20436;-52
2024/03/02 08:49:08;;;;;;;26.08;9.25;;;9.70;99.90;;;;;;5049785;28;20066;-53
2024/03/02 08:51:33;;;;;;;23.75;8.40;;;9.70;99.90;;;;;;5049903;28;20052;-52
2024/03/02 08:53:59;;;;;;;23.33;8.82;;;9.70;99.90;;;;;;5046169;28;20041;-53
2024/03/02 08:56:25;;;;;;;24.23;8.88;;;9.80;99.90;;;;;;5066629;28;20067;-52
2024/03/02 08:58:51;;;;;;;30.05;9.43;;;9.80;99.80;;;;;;5049350;28;20115;-53
2024/03/02 09:01:17;;;;;;;26.30;8.98;;;9.80;99.80;;;;;;5061479;28;20036;-52
2024/03/02 09:03:45;;;;;;;23.55;8.77;;;9.80;99.80;;;;;;5048514;28;20089;-52
2024/03/02 09:06:12;;;;;;;104.75;15.38;;;9.80;99.90;;;;;;5028536;28;20022;-53
2024/03/02 09:08:38;;;;;;;39.78;11.60;;;9.80;99.90;;;;;;5035965;28;20025;-53
2024/03/02 09:11:04;;;;;;;28.65;10.02;;;9.90;99.90;;;;;;5049525;28;20033;-53
2024/03/02 09:13:30;;;;;;;27.25;9.45;;;9.80;99.80;;;;;;5039165;28;20031;-52
2024/03/02 09:15:56;;;;;;;23.80;9.15;;;9.90;99.90;;;;;;5010405;28;20089;-53
2024/03/02 09:18:22;;;;;;;22.80;9.85;;;9.90;99.90;;;;;;5031825;28;20035;-53
2024/03/02 09:20:47;;;;;;;20.67;8.95;;;9.90;99.80;;;;;;5031158;28;20094;-52
2024/03/02 09:23:13;;;;;;;38.38;9.98;;;9.90;99.70;;;;;;5048458;28;20033;-53
2024/03/02 09:25:38;;;;;;;26.45;9.10;;;9.90;99.60;;;;;;5032356;28;20036;-52
2024/03/02 09:28:04;;;;;;;30.85;9.82;;;9.90;99.60;;;;;;5032237;28;20025;-52
2024/03/02 09:30:30;;;;;;;20.42;9.02;;;9.90;99.60;;;;;;5045795;28;20078;-52
2024/03/02 09:32:55;;;;;;;29.05;9.07;;;9.90;99.60;;;;;;5058308;28;20108;-53
2024/03/02 09:35:21;;;;;;;28.55;10.75;;;10.00;99.70;;;;;;5048259;28;20033;-53
2024/03/02 09:37:47;;;;;;;45.97;10.40;;;10.00;99.80;;;;;;5044403;28;20041;-52
2024/03/02 09:40:13;;;;;;;44.08;11.00;;;10.00;99.70;;;;;;5051366;28;20068;-53
2024/03/02 09:42:39;;;;;;;48.25;11.18;;;10.10;99.70;;;;;;5026062;28;20108;-53
2024/03/02 09:45:06;;;;;;;73.10;12.57;;;10.10;99.70;;;;;;5048046;28;20411;-53
2024/03/02 09:47:31;;;;;;;71.60;13.25;;;10.10;99.80;;;;;;5031754;28;20025;-53
2024/03/02 09:49:57;;;;;;;58.63;12.13;;;10.10;99.90;;;;;;5048065;28;20094;-53
2024/03/02 09:52:23;;;;;;;70.90;13.45;;;10.20;99.90;;;;;;5047792;28;20024;-52
2024/03/02 09:54:49;;;;;;;102.43;14.85;;;10.20;99.90;;;;;;5040811;28;20045;-53
2024/03/02 09:57:15;;;;;;;78.55;15.52;;;10.30;99.90;;;;;;5057856;28;20033;-52
2024/03/02 09:59:40;;;;;;;113.90;14.80;;;10.30;99.90;;;;;;5048103;28;20115;-52
2024/03/02 10:02:07;;;;;;;84.22;15.23;;;10.30;99.90;;;;;;5055857;28;20037;-53
2024/03/02 10:04:32;;;;;;;79.03;15.07;;;10.30;99.90;;;;;;5040401;28;20021;-53
2024/03/02 10:07:17;;;;;;;47.22;11.20;;;10.30;99.90;;;;;;5063967;28;20068;-52
2024/03/02 10:09:44;;;;;;;118.03;16.67;;;10.40;99.90;;;;;;5018756;28;20029;-53
2024/03/02 10:12:11;;;;;;;75.82;12.60;;;10.40;99.90;;;;;;5047601;28;20013;-53
2024/03/02 10:14:37;;;;;;;93.32;14.88;;;10.50;99.80;;;;;;5048064;28;20061;-53
2024/03/02 10:17:03;;;;;;;148.88;19.95;;;10.50;99.80;;;;;;5047763;28;20018;-52
2024/03/02 10:19:32;;;;;;;252.63;25.88;;;10.50;99.90;;;;;;5011990;28;20025;-52
2024/03/02 10:21:59;;;;;;;137.95;18.67;;;10.60;99.90;;;;;;5027537;28;20499;-53
2024/03/02 10:24:25;;;;;;;150.98;20.42;;;10.60;99.90;;;;;;5047703;28;20491;-53
2024/03/02 10:26:50;;;;;;;140.98;18.98;;;10.70;99.90;;;;;;5065563;28;20025;-52
2024/03/02 10:29:16;;;;;;;180.18;21.95;;;10.70;99.90;;;;;;5048276;28;20047;-53
2024/03/02 10:31:43;;;;;;;171.48;22.48;;;10.70;99.90;;;;;;5031092;28;20029;-52
2024/03/02 10:34:10;;;;;;;195.98;22.55;;;10.80;99.90;;;;;;5038559;28;20025;-52
2024/03/02 10:36:36;;;;;;;151.73;18.52;;;10.80;99.90;;;;;;5040356;28;20059;-58
2024/03/02 10:39:03;;;;;;;132.82;18.52;;;10.80;99.90;;;;;;5037435;28;20100;-58
2024/03/02 10:41:30;;;;;;;127.55;18.67;;;10.80;99.90;;;;;;5045024;28;20029;-58
2024/03/02 10:43:59;;;;;;;122.70;16.02;;;10.90;99.90;;;;;;5045108;28;20329;-58
2024/03/02 10:46:31;;;;;;;154.05;19.75;;;10.90;99.90;;;;;;5043577;28;20025;-58
2024/03/02 10:48:58;;;;;;;156.70;22.00;;;10.90;99.90;;;;;;5034141;28;20143;-58
2024/03/02 10:51:30;;;;;;;185.35;20.75;;;10.90;99.90;;;;;;5045337;28;20025;-58
2024/03/02 10:53:56;;;;;;;235.82;25.13;;;11.00;99.90;;;;;;5029159;28;20040;-58
2024/03/02 10:56:26;;;;;;;175.13;21.13;;;11.00;99.90;;;;;;5047115;28;20041;-59
2024/03/02 10:58:52;;;;;;;151.18;20.02;;;11.00;99.90;;;;;;5047283;28;20033;-58
2024/03/02 11:01:17;;;;;;;141.05;18.48;;;11.00;99.90;;;;;;5033497;28;21232;-58
2024/03/02 11:03:44;;;;;;;147.50;19.95;;;11.00;99.90;;;;;;5015639;28;20112;-53
2024/03/02 11:06:10;;;;;;;151.07;20.25;;;11.10;99.90;;;;;;5015806;28;20036;-53
2024/03/02 11:08:36;;;;;;;180.60;22.90;;;11.10;99.90;;;;;;5032218;28;20012;-54
2024/03/02 11:11:07;;;;;;;152.70;19.83;;;11.10;99.90;;;;;;5032526;28;20020;-53
2024/03/02 11:13:33;;;;;;;126.35;17.45;;;11.10;99.90;;;;;;5048720;28;20051;-54
2024/03/02 11:16:04;;;;;;;148.13;18.88;;;11.10;99.90;;;;;;5047987;28;20044;-53
2024/03/02 11:18:29;;;;;;;136.77;19.17;;;11.10;99.90;;;;;;5048925;28;20032;-53
2024/03/02 11:20:55;;;;;;;197.13;20.92;;;11.20;99.90;;;;;;5049127;28;20056;-59
2024/03/02 11:23:21;;;;;;;119.28;16.75;;;11.20;99.90;;;;;;5026686;28;20029;-58
2024/03/02 11:25:47;;;;;;;120.75;16.25;;;11.20;99.70;;;;;;5062303;28;20116;-59
2024/03/02 11:28:12;;;;;;;163.20;19.45;;;11.20;99.40;;;;;;5046750;28;20021;-59
2024/03/02 11:30:38;;;;;;;175.30;18.50;;;11.30;99.50;;;;;;5067892;28;20025;-58
2024/03/02 11:33:07;;;;;;;100.70;15.35;;;11.30;99.70;;;;;;5055521;28;20030;-58
2024/03/02 11:35:34;;;;;;;141.65;17.65;;;11.30;99.50;;;;;;5032128;28;20044;-58
2024/03/02 11:38:00;;;;;;;100.60;17.08;;;11.30;99.50;;;;;;5035226;28;20034;-59
2024/03/02 11:40:25;;;;;;;110.35;15.98;;;11.30;99.50;;;;;;5020131;28;20063;-58
2024/03/02 11:42:51;;;;;;;115.75;15.82;;;11.30;99.10;;;;;;5033119;28;20048;-59
2024/03/02 11:45:17;;;;;;;98.75;14.07;;;11.30;99.00;;;;;;5033837;28;20463;-59
2024/03/02 11:47:49;;;;;;;102.07;14.27;;;11.30;99.00;;;;;;5050791;28;20024;-59
2024/03/02 11:50:15;;;;;;;108.20;13.05;;;11.30;99.00;;;;;;5007980;28;20154;-58
2024/03/02 11:52:41;;;;;;;102.18;13.80;;;11.40;99.00;;;;;;5018179;28;20069;-59
2024/03/02 11:55:07;;;;;;;108.13;15.18;;;11.40;98.90;;;;;;5016131;28;20045;-58
2024/03/02 11:57:33;;;;;;;161.70;17.65;;;11.40;98.90;;;;;;5032960;28;20021;-59
2024/03/02 11:59:59;;;;;;;166.40;19.40;;;11.40;99.10;;;;;;5020299;28;20044;-59
2024/03/02 12:02:25;;;;;;;132.32;17.95;;;11.40;99.20;;;;;;5019145;28;20025;-59
2024/03/02 12:04:50;;;;;;;140.50;16.92;;;11.40;99.20;;;;;;5023165;28;20033;-59
2024/03/02 12:07:23;;;;;;;138.63;16.23;;;11.50;99.10;;;;;;5033787;28;20029;-59
2024/03/02 12:10:07;;;;;;;100.75;14.38;;;11.50;99.10;;;;;;5068128;28;20092;-59
2024/03/02 12:12:32;;;;;;;150.50;16.67;;;11.50;98.90;;;;;;5053110;28;20079;-58
2024/03/02 12:15:00;;;;;;;145.77;17.52;;;11.50;98.80;;;;;;5066674;28;20033;-59
2024/03/02 12:17:26;;;;;;;94.78;15.43;;;11.50;98.80;;;;;;5059076;28;20116;-58
2024/03/02 12:19:51;;;;;;;102.13;16.42;;;11.60;98.90;;;;;;5042835;28;20057;-59
2024/03/02 12:22:17;;;;;;;159.25;20.65;;;11.60;98.70;;;;;;5040776;28;20040;-58
2024/03/02 12:24:45;;;;;;;374.98;37.58;;;11.60;98.50;;;;;;5038517;28;20093;-58
2024/03/02 12:27:11;;;;;;;186.15;20.40;;;11.60;98.50;;;;;;5039474;28;20033;-58
2024/03/02 12:29:36;;;;;;;146.45;18.13;;;11.60;98.50;;;;;;5030053;28;20028;-59
2024/03/02 12:32:02;;;;;;;168.52;19.45;;;11.80;98.50;;;;;;5028595;28;20023;-59
2024/03/02 12:34:27;;;;;;;152.30;18.15;;;11.70;98.40;;;;;;5047738;28;20017;-58
2024/03/02 12:36:53;;;;;;;175.15;20.55;;;11.70;98.40;;;;;;5034159;28;20037;-58